Time;durP1;ratioP1;P1;durP2;ratioP2;P2;SDS_P1;SDS_P2;PMS_P1;PMS_P2;Temp;Humidity;BMP_temperature;BMP_pressure;BME280_temperature;BME280_humidity;BME280_pressure;Samples;Min_cycle;Max_cycle;Signal;HPM_P1;HPM_P2
2022/02/10 00:20:56;;;;;;;42.28;17.52;;;9.60;99.90;;;;;;5030105;28;20053;-37
2022/02/10 00:36:28;;;;;;;31.42;15.57;;;9.50;99.90;;;;;;5035130;28;20119;-37
2022/02/10 00:41:38;;;;;;;28.23;15.57;;;9.50;99.90;;;;;;5015172;28;20509;-38
2022/02/10 00:44:04;;;;;;;28.83;15.52;;;9.50;99.90;;;;;;5027001;28;20022;-37
2022/02/10 00:46:30;;;;;;;29.38;14.38;;;9.50;99.90;;;;;;5015053;28;20044;-37
2022/02/10 00:49:14;;;;;;;26.95;14.55;;;9.50;99.90;;;;;;5018233;28;20021;-38
2022/02/10 00:51:41;;;;;;;28.33;14.05;;;9.60;99.90;;;;;;5034899;28;20021;-38
2022/02/10 00:54:06;;;;;;;30.70;14.85;;;9.60;99.90;;;;;;5017321;28;20097;-38
2022/02/10 00:56:32;;;;;;;27.83;15.23;;;9.60;99.90;;;;;;5014945;28;20111;-38
2022/02/10 00:59:14;;;;;;;26.70;14.25;;;9.50;99.90;;;;;;5014604;28;20173;-38
2022/02/10 01:10:25;;;;;;;29.50;13.80;;;9.50;99.90;;;;;;5034163;28;20037;-37
2022/02/10 01:31:41;;;;;;;25.42;12.27;;;9.50;99.90;;;;;;5015052;28;20064;-37
2022/02/10 01:34:07;;;;;;;23.55;12.18;;;9.50;99.90;;;;;;5014287;28;20458;-38
2022/02/10 01:36:33;;;;;;;26.77;13.30;;;9.40;99.90;;;;;;5014555;28;20049;-46
2022/02/10 01:38:59;;;;;;;25.90;12.65;;;9.40;99.90;;;;;;5014185;28;20022;-35
2022/02/10 01:41:57;;;;;;;29.60;13.10;;;9.40;99.90;;;;;;5014371;28;20026;-37
2022/02/10 01:58:10;;;;;;;23.27;12.02;;;9.30;99.90;;;;;;5026405;28;20029;-36
2022/02/10 02:03:25;;;;;;;25.98;11.50;;;9.30;99.90;;;;;;5013973;28;20033;-38
2022/02/10 02:06:06;;;;;;;27.30;14.07;;;9.30;99.90;;;;;;5013937;28;20038;-37
2022/02/10 02:08:35;;;;;;;31.90;14.05;;;9.20;99.90;;;;;;5015064;28;20458;-38
2022/02/10 02:11:02;;;;;;;32.42;12.82;;;9.20;99.90;;;;;;5013016;28;20018;-38
2022/02/10 02:13:28;;;;;;;27.42;13.02;;;9.20;99.90;;;;;;5017250;28;20033;-37
2022/02/10 02:15:54;;;;;;;29.77;14.80;;;9.20;99.90;;;;;;5030421;28;20497;-37
2022/02/10 02:18:20;;;;;;;34.63;14.35;;;9.20;99.90;;;;;;5016573;28;20498;-38
2022/02/10 02:20:49;;;;;;;27.83;12.80;;;9.20;99.90;;;;;;5033228;28;20022;-38
2022/02/10 02:23:16;;;;;;;28.60;13.45;;;9.20;99.90;;;;;;5032826;28;20539;-38
2022/02/10 02:25:42;;;;;;;34.58;13.93;;;9.20;99.90;;;;;;5031404;28;20029;-38
2022/02/10 02:28:10;;;;;;;36.60;13.70;;;9.20;99.90;;;;;;5033374;28;20044;-48
2022/02/10 02:30:48;;;;;;;29.58;13.18;;;9.10;99.90;;;;;;5033000;28;20074;-37
2022/02/10 02:36:18;;;;;;;31.25;14.23;;;9.10;99.90;;;;;;5013149;28;20034;-38
2022/02/10 02:39:18;;;;;;;33.67;13.98;;;9.10;99.90;;;;;;5013139;28;20034;-36
2022/02/10 03:06:14;;;;;;;32.70;14.15;;;9.10;99.90;;;;;;5014132;28;20036;-37
2022/02/10 03:08:44;;;;;;;28.45;14.52;;;9.10;99.90;;;;;;5032507;28;20037;-36
2022/02/10 03:11:11;;;;;;;31.90;13.95;;;9.10;99.90;;;;;;5032826;28;20025;-38
2022/02/10 03:13:44;;;;;;;29.95;12.70;;;9.10;99.90;;;;;;5032910;28;20053;-38
2022/02/10 04:18:39;;;;;;;41.65;17.10;;;9.00;99.90;;;;;;5035329;28;20448;-39
2022/02/10 04:21:14;;;;;;;35.20;14.70;;;8.90;99.90;;;;;;5035459;28;20477;-36
2022/02/10 05:12:25;;;;;;;47.42;16.40;;;8.90;99.90;;;;;;5034707;28;20099;-44
2022/02/10 05:17:18;;;;;;;48.03;16.92;;;8.90;99.90;;;;;;5033133;28;20040;-38
2022/02/10 05:22:44;;;;;;;52.58;16.42;;;8.80;99.90;;;;;;5034470;28;20072;-38
2022/02/10 05:33:42;;;;;;;48.92;17.15;;;8.80;99.90;;;;;;5012192;28;20133;-37
2022/02/10 05:36:31;;;;;;;46.42;18.10;;;8.80;99.90;;;;;;5012134;28;20030;-41
2022/02/10 05:44:07;;;;;;;36.10;13.45;;;8.50;99.90;;;;;;5013573;28;20037;-56
2022/02/10 05:52:34;;;;;;;31.92;11.82;;;8.50;99.90;;;;;;5029223;28;20111;-35
2022/02/10 05:55:14;;;;;;;29.70;10.55;;;8.40;99.90;;;;;;5016707;28;20068;-37
2022/02/10 07:04:41;;;;;;;6.28;3.15;;;7.30;99.90;;;;;;5028837;28;20464;-38
2022/02/10 07:10:21;;;;;;;7.72;3.58;;;7.40;99.90;;;;;;5032781;28;20113;-58
2022/02/10 09:06:18;;;;;;;14.98;7.30;;;8.80;99.90;;;;;;5025650;28;20036;-39
2022/02/10 09:19:35;;;;;;;7.95;3.53;;;9.20;99.90;;;;;;5016444;28;20037;-36
2022/02/10 09:23:08;;;;;;;8.18;3.08;;;9.20;99.90;;;;;;5034601;28;20429;-40
2022/02/10 09:47:28;;;;;;;10.27;3.38;;;9.10;99.90;;;;;;5016929;28;20048;-39
2022/02/10 10:00:24;;;;;;;2.85;1.88;;;9.20;99.90;;;;;;5032176;28;20041;-39
2022/02/10 10:02:37;;;;;;;3.58;1.92;;;9.30;99.90;;;;;;5029111;28;20087;-38
2022/02/10 10:05:30;;;;;;;7.22;2.10;;;9.50;99.90;;;;;;5033041;28;20022;-37
2022/02/10 10:08:12;;;;;;;2.65;1.45;;;9.50;99.90;;;;;;5033293;28;20057;-40
2022/02/10 10:10:58;;;;;;;6.50;1.85;;;9.50;99.90;;;;;;5033736;28;20512;-36
2022/02/10 10:21:26;;;;;;;13.95;2.30;;;9.50;99.90;;;;;;5032917;28;20029;-38
2022/02/10 10:24:21;;;;;;;7.35;1.73;;;9.70;99.90;;;;;;5014208;28;20057;-38
2022/02/10 10:56:52;;;;;;;5.95;1.63;;;9.40;99.90;;;;;;5013130;28;20101;-37
2022/02/10 11:41:52;;;;;;;2.25;1.05;;;9.50;99.90;;;;;;5013440;28;20530;-38
2022/02/10 12:29:27;;;;;;;9.05;0.88;;;9.30;99.90;;;;;;5036068;28;20130;-39
2022/02/10 12:31:41;;;;;;;7.18;0.82;;;9.40;99.90;;;;;;5035222;28;20036;-39
2022/02/10 14:14:51;;;;;;;3.80;1.30;;;9.30;99.90;;;;;;5013950;28;20177;-39
2022/02/10 14:17:27;;;;;;;12.25;2.42;;;9.30;99.90;;;;;;5016254;28;20021;-41
2022/02/10 14:20:10;;;;;;;4.85;0.82;;;9.20;99.90;;;;;;5033114;28;20041;-40
2022/02/10 14:27:46;;;;;;;10.50;1.23;;;9.10;99.90;;;;;;5032595;28;20544;-41
2022/02/10 14:30:12;;;;;;;7.00;0.85;;;9.00;99.90;;;;;;5018976;28;20084;-40
2022/02/10 14:32:42;;;;;;;7.78;1.27;;;9.10;99.90;;;;;;5013376;28;20034;-43
2022/02/10 14:35:16;;;;;;;5.20;0.82;;;8.90;99.90;;;;;;5013966;28;20025;-39
2022/02/10 15:48:52;;;;;;;4.25;0.90;;;7.70;99.90;;;;;;5020306;28;20075;-40
2022/02/10 16:18:16;;;;;;;9.25;1.10;;;7.70;99.90;;;;;;5035696;28;20040;-37
2022/02/10 16:20:49;;;;;;;4.82;1.05;;;7.60;99.90;;;;;;5019192;28;20412;-39
2022/02/10 16:23:19;;;;;;;7.75;1.17;;;7.60;99.90;;;;;;5015778;28;20018;-39
2022/02/10 16:25:50;;;;;;;6.07;1.13;;;7.60;99.90;;;;;;5015947;28;20502;-40
2022/02/10 16:28:25;;;;;;;2.70;1.17;;;7.70;99.90;;;;;;5014468;28;20049;-41
2022/02/10 16:30:51;;;;;;;2.53;1.23;;;7.70;99.90;;;;;;5015734;28;20102;-40
2022/02/10 16:33:17;;;;;;;6.10;1.17;;;7.70;99.90;;;;;;5015439;28;20018;-39
2022/02/10 16:35:43;;;;;;;6.72;1.15;;;7.70;99.90;;;;;;5015673;28;20438;-40
2022/02/10 16:38:10;;;;;;;7.80;1.48;;;7.60;99.90;;;;;;5019375;28;20017;-41
2022/02/10 16:40:39;;;;;;;10.93;1.35;;;7.50;99.90;;;;;;5035051;28;20228;-39
2022/02/10 16:43:05;;;;;;;5.10;1.30;;;7.50;99.90;;;;;;5034850;28;20543;-56
2022/02/10 16:45:31;;;;;;;5.13;1.30;;;7.50;99.90;;;;;;5034992;28;20100;-40
2022/02/10 16:47:57;;;;;;;13.05;1.95;;;7.40;99.90;;;;;;5031524;28;20104;-40
2022/02/10 16:50:23;;;;;;;13.50;1.10;;;7.40;99.90;;;;;;5016894;28;20033;-36
2022/02/10 16:52:58;;;;;;;4.22;1.25;;;7.50;99.90;;;;;;5034622;28;20044;-39
2022/02/10 16:56:14;;;;;;;8.23;1.77;;;7.40;99.90;;;;;;5034923;28;20497;-39
2022/02/10 17:19:30;;;;;;;7.05;1.77;;;7.20;99.90;;;;;;5030189;28;20107;-41
2022/02/10 17:27:22;;;;;;;10.25;1.15;;;7.20;99.90;;;;;;5034369;28;20095;-39
2022/02/10 17:32:27;;;;;;;10.30;1.33;;;7.10;99.90;;;;;;5029194;28;20132;-42
2022/02/10 17:46:08;;;;;;;1.42;0.90;;;7.10;99.90;;;;;;5014058;28;20401;-38
2022/02/10 17:53:48;;;;;;;6.53;1.30;;;7.20;99.90;;;;;;5033926;28;20028;-39
2022/02/10 17:56:14;;;;;;;6.13;1.35;;;7.20;99.90;;;;;;5023402;28;20022;-39
2022/02/10 17:58:40;;;;;;;6.50;1.55;;;7.20;99.90;;;;;;5014008;28;20494;-39
2022/02/10 18:01:07;;;;;;;9.63;1.40;;;7.20;99.90;;;;;;5013955;28;20036;-39
2022/02/10 18:03:33;;;;;;;5.13;1.17;;;7.20;99.90;;;;;;5012635;28;20037;-40
2022/02/10 18:08:46;;;;;;;7.15;1.52;;;7.20;99.90;;;;;;5022522;28;20033;-39
2022/02/10 18:14:03;;;;;;;6.82;1.30;;;7.10;99.90;;;;;;5033770;28;20036;-39
2022/02/10 18:16:34;;;;;;;9.93;1.00;;;7.10;99.90;;;;;;5033219;28;20035;-41
2022/02/10 18:19:07;;;;;;;6.35;1.63;;;7.10;99.90;;;;;;5033191;28;20033;-39
2022/02/10 18:24:18;;;;;;;8.25;1.00;;;7.10;99.90;;;;;;5018915;28;20124;-39
2022/02/10 19:01:55;;;;;;;9.15;1.60;;;6.90;99.90;;;;;;5013413;28;20065;-49
2022/02/10 19:09:48;;;;;;;14.32;1.45;;;6.90;99.90;;;;;;5031429;28;20052;-59
2022/02/10 19:12:24;;;;;;;4.40;0.80;;;6.90;99.90;;;;;;5013168;28;20041;-39
2022/02/10 19:14:55;;;;;;;6.22;1.38;;;6.90;99.90;;;;;;5025762;28;20026;-37
2022/02/10 19:17:23;;;;;;;7.80;1.60;;;6.90;99.90;;;;;;5032788;28;20220;-38
2022/02/10 19:19:49;;;;;;;6.90;1.33;;;6.90;99.90;;;;;;5031613;28;20448;-38
2022/02/10 19:22:14;;;;;;;3.13;1.13;;;6.90;99.90;;;;;;5024713;28;20108;-38
2022/02/10 19:24:40;;;;;;;6.03;1.92;;;7.00;99.90;;;;;;5024255;28;20026;-37
2022/02/10 19:27:07;;;;;;;5.85;1.55;;;7.00;99.90;;;;;;5032643;28;20113;-60
2022/02/10 19:29:33;;;;;;;2.42;0.85;;;7.00;99.90;;;;;;5020955;28;20033;-39
2022/02/10 19:31:59;;;;;;;4.85;1.15;;;7.00;99.90;;;;;;5031952;28;20029;-38
2022/02/10 19:34:31;;;;;;;3.08;1.10;;;7.00;99.90;;;;;;5032336;28;20034;-40
2022/02/10 19:36:57;;;;;;;6.63;1.33;;;7.00;99.90;;;;;;5032395;28;20029;-39
2022/02/10 19:39:24;;;;;;;9.20;2.00;;;7.00;99.90;;;;;;5032634;28;20029;-38
2022/02/10 19:41:52;;;;;;;3.25;1.30;;;6.90;99.90;;;;;;5029123;28;20029;-39
2022/02/10 19:44:18;;;;;;;7.65;1.05;;;6.90;99.90;;;;;;5032297;28;20029;-41
2022/02/10 19:46:44;;;;;;;9.55;1.73;;;6.80;99.90;;;;;;5032234;28;20084;-37
2022/02/10 19:49:15;;;;;;;5.10;1.25;;;6.90;99.90;;;;;;5032488;28;20030;-37
2022/02/10 19:51:40;;;;;;;3.33;1.63;;;6.80;99.90;;;;;;5016378;28;20080;-38
2022/02/10 19:54:07;;;;;;;5.68;1.65;;;6.80;99.90;;;;;;5012606;28;20053;-39
2022/02/10 19:56:33;;;;;;;2.75;1.45;;;6.80;99.90;;;;;;5012789;28;20053;-38
2022/02/10 19:58:59;;;;;;;11.95;1.70;;;6.70;99.90;;;;;;5012381;28;20026;-39
2022/02/10 20:01:27;;;;;;;6.70;3.38;;;6.70;99.90;;;;;;5025182;28;20037;-36
2022/02/10 20:03:52;;;;;;;10.00;2.28;;;6.70;99.90;;;;;;5014093;28;20087;-45
2022/02/10 20:06:18;;;;;;;6.85;1.75;;;6.70;99.90;;;;;;5016025;28;20029;-38
2022/02/10 20:08:46;;;;;;;3.28;1.33;;;6.70;99.90;;;;;;5016050;28;20028;-38
2022/02/10 20:11:12;;;;;;;7.97;1.67;;;6.60;99.90;;;;;;5016118;28;20041;-38
2022/02/10 20:13:37;;;;;;;5.25;1.58;;;6.60;99.90;;;;;;5015824;28;20430;-38
2022/02/10 20:16:08;;;;;;;4.40;2.08;;;6.60;99.90;;;;;;5023786;28;20048;-38
2022/02/10 20:18:34;;;;;;;8.90;1.80;;;6.60;99.90;;;;;;5035946;28;20018;-40
2022/02/10 20:21:00;;;;;;;8.15;2.35;;;6.50;99.90;;;;;;5034662;28;20053;-38
2022/02/10 20:23:27;;;;;;;4.18;1.83;;;6.50;99.90;;;;;;5035562;28;20056;-39
2022/02/10 20:25:52;;;;;;;4.60;2.10;;;6.50;99.90;;;;;;5033675;28;20037;-37
2022/02/10 20:28:22;;;;;;;6.72;2.00;;;6.50;99.90;;;;;;5035653;28;20048;-40
2022/02/10 20:30:48;;;;;;;8.45;2.00;;;6.50;99.90;;;;;;5034871;28;20046;-37
2022/02/10 20:33:17;;;;;;;6.07;1.90;;;6.40;99.90;;;;;;5034031;28;20513;-43
2022/02/10 20:35:45;;;;;;;4.13;1.73;;;6.40;99.90;;;;;;5035295;28;20029;-58
2022/02/10 20:38:12;;;;;;;6.32;1.80;;;6.40;99.90;;;;;;5035216;28;20029;-41
2022/02/10 20:40:42;;;;;;;9.13;1.80;;;6.40;99.90;;;;;;5016497;28;20026;-39
2022/02/10 20:43:09;;;;;;;7.43;1.65;;;6.40;99.90;;;;;;5015269;28;20261;-39
2022/02/10 20:45:36;;;;;;;6.25;1.90;;;6.40;99.90;;;;;;5022497;28;20152;-38
2022/02/10 20:48:03;;;;;;;12.35;2.75;;;6.40;99.90;;;;;;5029919;28;20029;-38
2022/02/10 20:50:29;;;;;;;4.85;2.67;;;6.40;99.90;;;;;;5026766;28;20025;-38
2022/02/10 20:52:55;;;;;;;7.07;1.95;;;6.40;99.90;;;;;;5015527;28;20022;-42
2022/02/10 20:55:21;;;;;;;12.77;2.33;;;6.50;99.90;;;;;;5013637;28;20022;-40
2022/02/10 20:57:46;;;;;;;3.63;1.80;;;6.50;99.90;;;;;;5015540;28;20037;-38
2022/02/10 21:00:16;;;;;;;6.47;1.30;;;6.50;99.90;;;;;;5019288;28;20033;-40
2022/02/10 21:03:01;;;;;;;6.18;1.52;;;6.50;99.90;;;;;;5034993;28;20037;-37
2022/02/10 21:08:06;;;;;;;8.85;2.33;;;6.60;99.90;;;;;;5022711;28;20040;-40
2022/02/10 21:10:33;;;;;;;8.60;1.98;;;6.60;99.90;;;;;;5014929;28;20045;-40
2022/02/10 21:12:59;;;;;;;5.10;0.93;;;6.50;99.90;;;;;;5015150;28;20030;-38
2022/02/10 21:15:29;;;;;;;7.38;2.10;;;6.50;99.90;;;;;;5029484;28;20083;-39
2022/02/10 21:18:00;;;;;;;12.18;1.88;;;6.50;99.90;;;;;;5034744;28;20037;-39
2022/02/10 21:20:31;;;;;;;7.30;1.67;;;6.50;99.90;;;;;;5031990;28;20099;-40
2022/02/10 21:23:06;;;;;;;5.15;1.63;;;6.50;99.90;;;;;;5028395;28;20036;-40
2022/02/10 21:25:36;;;;;;;5.95;2.20;;;6.40;99.90;;;;;;5032352;28;20060;-38
2022/02/10 21:28:09;;;;;;;3.45;1.60;;;6.40;99.90;;;;;;5013414;28;20038;-40
2022/02/10 21:30:34;;;;;;;5.35;1.60;;;6.30;99.90;;;;;;5024251;28;20025;-39
2022/02/10 21:33:02;;;;;;;5.22;1.73;;;6.30;99.90;;;;;;5034106;28;20034;-39
2022/02/10 21:35:56;;;;;;;7.07;1.58;;;6.30;99.90;;;;;;5034122;28;20026;-39
2022/02/10 21:38:23;;;;;;;6.53;1.15;;;6.20;99.90;;;;;;5029261;28;20544;-39
2022/02/10 21:54:41;;;;;;;8.10;1.27;;;6.00;99.90;;;;;;5034081;28;20128;-39
2022/02/10 22:18:38;;;;;;;8.98;1.23;;;5.70;99.90;;;;;;5033642;28;20548;-40
2022/02/10 22:21:06;;;;;;;6.32;1.95;;;5.70;99.90;;;;;;5032415;28;20116;-38
2022/02/10 22:23:35;;;;;;;8.57;1.45;;;5.70;99.90;;;;;;5033543;28;20029;-38
2022/02/10 22:26:04;;;;;;;5.70;1.58;;;5.70;99.90;;;;;;5032613;28;20509;-38
2022/02/10 22:28:45;;;;;;;5.07;1.65;;;5.60;99.90;;;;;;5033558;28;20083;-39
2022/02/10 22:31:31;;;;;;;6.90;1.40;;;5.60;99.90;;;;;;5033203;28;20026;-39
2022/02/10 22:36:23;;;;;;;6.80;1.83;;;5.60;99.90;;;;;;5033419;28;20045;-38
2022/02/10 22:38:53;;;;;;;8.25;1.15;;;5.60;99.90;;;;;;5020522;28;20486;-39
2022/02/10 22:41:19;;;;;;;10.25;1.27;;;5.60;99.90;;;;;;5026165;28;20029;-40
2022/02/10 22:43:47;;;;;;;4.97;1.48;;;5.60;99.90;;;;;;5033110;28;20034;-40
2022/02/10 22:46:15;;;;;;;2.58;0.70;;;5.60;99.90;;;;;;5032646;28;20033;-44
2022/02/10 22:48:43;;;;;;;6.03;0.95;;;5.50;99.90;;;;;;5033010;28;20026;-38
2022/02/10 22:51:09;;;;;;;;;;;5.50;99.90;;;;;;5033197;28;20022;-41
2022/02/10 22:53:34;;;;;;;11.10;1.48;;;5.50;99.90;;;;;;5032872;28;20312;-39
2022/02/10 22:56:00;;;;;;;5.90;1.05;;;5.50;99.90;;;;;;5032171;28;20036;-39
2022/02/10 22:58:26;;;;;;;12.07;1.15;;;5.50;99.90;;;;;;5032790;28;20055;-39
2022/02/10 23:00:53;;;;;;;3.58;1.73;;;5.50;99.90;;;;;;5032774;28;20040;-39
2022/02/10 23:03:24;;;;;;;5.88;1.40;;;5.50;99.90;;;;;;5033010;28;20022;-38
2022/02/10 23:05:51;;;;;;;9.43;2.50;;;5.40;99.90;;;;;;5032782;28;20029;-37
2022/02/10 23:08:18;;;;;;;6.55;1.38;;;5.40;99.90;;;;;;5032791;28;20076;-39
2022/02/10 23:10:47;;;;;;;10.27;2.03;;;5.30;99.90;;;;;;5032822;28;20049;-72
2022/02/10 23:13:21;;;;;;;8.85;1.70;;;5.30;99.90;;;;;;5031574;28;20272;-34
2022/02/10 23:15:46;;;;;;;11.05;1.60;;;5.20;99.90;;;;;;5028809;28;20028;-39
2022/02/10 23:18:15;;;;;;;7.50;1.23;;;5.20;99.90;;;;;;5031769;28;20025;-40
2022/02/10 23:20:41;;;;;;;11.13;1.50;;;5.20;99.90;;;;;;5031715;28;20159;-39
2022/02/10 23:23:09;;;;;;;7.35;1.40;;;5.20;99.90;;;;;;5031149;28;20453;-35
2022/02/10 23:25:39;;;;;;;2.47;0.98;;;5.10;99.90;;;;;;5020846;28;20112;-36
2022/02/10 23:28:08;;;;;;;5.90;1.45;;;5.10;99.90;;;;;;5027590;28;20030;-40
2022/02/10 23:30:34;;;;;;;4.65;1.00;;;5.10;99.90;;;;;;5031842;28;20398;-39
2022/02/10 23:33:09;;;;;;;3.03;1.05;;;5.10;99.90;;;;;;5030449;28;20056;-38
2022/02/10 23:38:22;;;;;;;9.70;1.75;;;5.10;99.90;;;;;;5028518;28;20441;-40
2022/02/10 23:43:29;;;;;;;5.25;1.20;;;5.20;99.90;;;;;;5049501;28;20030;-39
2022/02/10 23:45:54;;;;;;;13.88;1.63;;;5.20;99.90;;;;;;5035790;28;20497;-36
2022/02/10 23:48:20;;;;;;;10.65;1.80;;;5.20;99.90;;;;;;5025309;28;20027;-39
2022/02/10 23:50:46;;;;;;;10.57;1.58;;;5.30;99.90;;;;;;5030481;28;20065;-39
2022/02/10 23:53:12;;;;;;;4.55;1.20;;;5.30;99.90;;;;;;5036081;28;20478;-40
2022/02/10 23:55:40;;;;;;;13.50;1.27;;;5.30;99.90;;;;;;5023546;28;20397;-39
